Time;durP1;ratioP1;P1;durP2;ratioP2;P2;SDS_P1;SDS_P2;PMS_P1;PMS_P2;Temp;Humidity;BMP_temperature;BMP_pressure;BME280_temperature;BME280_humidity;BME280_pressure;Samples;Min_cycle;Max_cycle;Signal;HPM_P1;HPM_P2
2022/05/15 00:00:57;;;;;;;42.30;8.52;;;;;;;;;;4999796;28;20435;-86
2022/05/15 00:03:25;;;;;;;31.88;8.15;;;;;;;;;;4999079;28;20049;-86
2022/05/15 00:05:55;;;;;;;36.85;7.75;;;;;;;;;;4967451;28;20041;-86
2022/05/15 00:08:22;;;;;;;30.77;7.45;;;;;;;;;;4999634;28;20081;-86
2022/05/15 00:10:49;;;;;;;31.52;6.82;;;;;;;;;;4982682;28;20050;-87
2022/05/15 00:13:15;;;;;;;28.25;6.40;;;;;;;;;;5003499;28;20502;-85
2022/05/15 00:15:41;;;;;;;28.42;6.40;;;;;;;;;;5001784;28;20061;-86
2022/05/15 00:18:08;;;;;;;25.13;7.15;;;;;;;;;;4995339;28;20044;-86
2022/05/15 00:20:35;;;;;;;28.33;7.18;;;;;;;;;;5002094;28;20275;-85
2022/05/15 00:23:01;;;;;;;25.00;6.80;;;;;;;;;;5000433;28;20049;-85
2022/05/15 00:25:28;;;;;;;29.10;6.22;;;;;;;;;;5002685;28;20124;-85
2022/05/15 00:27:54;;;;;;;29.55;7.22;;;;;;;;;;4999410;28;20125;-86
2022/05/15 00:30:21;;;;;;;32.60;7.15;;;;;;;;;;5001392;28;20426;-85
2022/05/15 00:32:47;;;;;;;34.65;6.93;;;;;;;;;;5001370;28;20041;-85
2022/05/15 00:35:13;;;;;;;31.60;6.90;;;;;;;;;;5002026;28;20038;-88
2022/05/15 00:37:39;;;;;;;50.22;11.68;;;;;;;;;;5001212;28;20127;-88
2022/05/15 00:40:07;;;;;;;45.65;9.52;;;;;;;;;;5008526;28;20151;-82
2022/05/15 00:42:33;;;;;;;33.75;8.13;;;;;;;;;;5015421;28;20097;-88
2022/05/15 00:44:59;;;;;;;25.88;6.25;;;;;;;;;;5016071;28;20052;-88
2022/05/15 00:47:25;;;;;;;28.45;6.60;;;;;;;;;;5002923;28;20093;-84
2022/05/15 00:49:53;;;;;;;27.90;6.45;;;;;;;;;;5002501;28;20072;-88
2022/05/15 00:52:21;;;;;;;26.85;5.90;;;;;;;;;;5002029;28;20115;-86
2022/05/15 00:54:50;;;;;;;26.85;6.75;;;;;;;;;;5001714;28;20037;-87
2022/05/15 00:57:43;;;;;;;29.95;7.15;;;;;;;;;;5000345;28;20066;-86
2022/05/15 01:00:18;;;;;;;44.53;8.98;;;;;;;;;;4980502;28;20634;-86
2022/05/15 01:02:50;;;;;;;40.47;7.75;;;;;;;;;;4982185;28;20411;-84
2022/05/15 01:05:17;;;;;;;31.80;8.52;;;;;;;;;;5001992;28;20053;-86
2022/05/15 01:07:43;;;;;;;37.33;9.27;;;;;;;;;;5000010;28;20406;-84
2022/05/15 01:10:09;;;;;;;30.00;7.25;;;;;;;;;;5000400;28;20057;-81
2022/05/15 01:12:36;;;;;;;31.08;8.27;;;;;;;;;;5001451;28;20052;-88
2022/05/15 01:15:04;;;;;;;45.17;11.02;;;;;;;;;;5000796;28;20581;-88
2022/05/15 01:17:30;;;;;;;44.67;11.20;;;;;;;;;;5006165;28;20046;-85
2022/05/15 01:20:07;;;;;;;102.43;22.80;;;;;;;;;;5004544;28;20042;-79
2022/05/15 01:22:33;;;;;;;141.13;29.70;;;;;;;;;;4987602;28;20852;-86
2022/05/15 01:24:59;;;;;;;135.65;29.58;;;;;;;;;;4999606;28;20038;-88
2022/05/15 01:27:25;;;;;;;108.72;23.98;;;;;;;;;;4998411;28;20124;-87
2022/05/15 01:29:51;;;;;;;133.15;30.27;;;;;;;;;;5000193;28;20073;-86
2022/05/15 01:32:18;;;;;;;147.57;36.25;;;;;;;;;;5000112;28;20108;-87
2022/05/15 01:34:44;;;;;;;173.63;37.38;;;;;;;;;;5000079;28;20029;-86
2022/05/15 01:37:11;;;;;;;166.98;39.35;;;;;;;;;;4999344;28;20053;-88
2022/05/15 01:39:37;;;;;;;129.93;31.55;;;;;;;;;;5003840;28;20105;-85
2022/05/15 01:42:04;;;;;;;91.28;24.23;;;;;;;;;;5004426;28;21121;-87
2022/05/15 01:44:30;;;;;;;80.88;20.92;;;;;;;;;;5006831;28;20038;-82
2022/05/15 01:46:57;;;;;;;80.38;19.63;;;;;;;;;;4985970;28;20482;-85
2022/05/15 01:49:23;;;;;;;68.05;17.17;;;;;;;;;;5003880;28;20064;-83
2022/05/15 01:51:49;;;;;;;81.90;20.52;;;;;;;;;;4986931;28;20045;-82
2022/05/15 01:54:16;;;;;;;74.80;17.48;;;;;;;;;;5004827;28;20411;-81
2022/05/15 01:56:42;;;;;;;84.85;19.33;;;;;;;;;;5004406;28;20079;-86
2022/05/15 01:59:08;;;;;;;97.53;22.20;;;;;;;;;;5003421;28;20124;-80
2022/05/15 02:01:35;;;;;;;95.20;22.08;;;;;;;;;;5003888;28;20030;-81
2022/05/15 02:04:01;;;;;;;83.90;20.02;;;;;;;;;;5003960;28;20057;-85
2022/05/15 02:06:28;;;;;;;78.40;18.55;;;;;;;;;;4985647;28;20058;-81
2022/05/15 02:08:57;;;;;;;76.15;19.00;;;;;;;;;;5003992;28;20465;-87
2022/05/15 02:11:23;;;;;;;89.40;21.30;;;;;;;;;;5000916;28;20057;-86
2022/05/15 02:13:49;;;;;;;97.70;24.42;;;;;;;;;;5004342;28;20042;-80
2022/05/15 02:16:15;;;;;;;168.98;37.65;;;;;;;;;;5003274;28;20037;-88
2022/05/15 02:18:41;;;;;;;179.02;38.90;;;;;;;;;;5003334;28;20046;-82
2022/05/15 02:21:08;;;;;;;179.23;42.47;;;;;;;;;;5004349;28;20038;-86
2022/05/15 02:23:34;;;;;;;125.60;31.23;;;;;;;;;;5002404;28;20129;-84
2022/05/15 02:26:00;;;;;;;114.90;27.30;;;;;;;;;;5000566;28;20038;-78
2022/05/15 02:28:27;;;;;;;226.32;53.65;;;;;;;;;;5003583;28;20471;-80
2022/05/15 02:30:53;;;;;;;136.52;32.65;;;;;;;;;;5003823;28;20038;-81
2022/05/15 02:33:19;;;;;;;97.82;25.65;;;;;;;;;;5003003;28;20117;-79
2022/05/15 02:35:46;;;;;;;136.05;31.17;;;;;;;;;;4988641;28;20052;-79
2022/05/15 02:38:12;;;;;;;120.95;27.23;;;;;;;;;;4985146;28;20046;-80
2022/05/15 02:40:38;;;;;;;79.85;22.25;;;;;;;;;;5003383;28;20103;-82
2022/05/15 02:43:04;;;;;;;83.32;18.65;;;;;;;;;;5005339;28;20077;-81
2022/05/15 02:45:30;;;;;;;51.05;15.00;;;;;;;;;;4991013;28;20034;-81
2022/05/15 02:47:56;;;;;;;59.65;14.85;;;;;;;;;;5012113;28;20056;-82
2022/05/15 02:53:07;;;;;;;113.75;27.38;;;;;;;;;;5000756;28;20047;-85
2022/05/15 02:55:34;;;;;;;146.82;33.70;;;;;;;;;;4998839;28;20042;-88
2022/05/15 02:58:00;;;;;;;33.67;9.00;;;;;;;;;;4987877;28;20065;-87
2022/05/15 03:00:27;;;;;;;19.48;6.03;;;;;;;;;;5008075;28;20050;-85
2022/05/15 03:02:53;;;;;;;19.02;5.22;;;;;;;;;;4985903;28;20060;-83
2022/05/15 03:05:21;;;;;;;24.98;5.15;;;;;;;;;;5000238;28;20057;-87
2022/05/15 03:07:47;;;;;;;18.65;4.55;;;;;;;;;;5004861;28;20060;-86
2022/05/15 03:10:14;;;;;;;33.42;5.43;;;;;;;;;;5003889;28;20061;-87
2022/05/15 03:12:41;;;;;;;17.80;5.32;;;;;;;;;;4972485;28;20049;-84
2022/05/15 03:15:07;;;;;;;86.65;21.40;;;;;;;;;;5000909;28;20200;-85
2022/05/15 03:17:34;;;;;;;63.05;15.55;;;;;;;;;;4985000;28;20115;-87
2022/05/15 03:20:01;;;;;;;27.83;5.40;;;;;;;;;;4987715;28;20045;-86
2022/05/15 03:22:27;;;;;;;41.35;9.63;;;;;;;;;;5016548;28;20068;-87
2022/05/15 03:24:53;;;;;;;46.85;11.05;;;;;;;;;;5004962;28;20099;-85
2022/05/15 03:27:19;;;;;;;63.92;15.93;;;;;;;;;;5026254;28;20041;-85
2022/05/15 03:29:45;;;;;;;82.82;20.20;;;;;;;;;;4995162;28;20072;-80
2022/05/15 03:32:11;;;;;;;113.63;24.63;;;;;;;;;;5007370;28;20034;-82
2022/05/15 03:34:37;;;;;;;117.10;25.33;;;;;;;;;;4984019;28;20053;-80
2022/05/15 03:37:04;;;;;;;117.88;28.27;;;;;;;;;;4953613;28;20561;-87
2022/05/15 03:39:30;;;;;;;167.35;41.65;;;;;;;;;;4980920;28;20137;-86
2022/05/15 03:41:56;;;;;;;426.95;102.57;;;;;;;;;;4985645;28;20513;-80
2022/05/15 03:44:22;;;;;;;315.00;75.82;;;;;;;;;;4984506;28;20042;-85
2022/05/15 03:46:48;;;;;;;261.20;67.05;;;;;;;;;;5003154;28;20541;-81
2022/05/15 03:49:15;;;;;;;162.38;46.55;;;;;;;;;;4950206;28;20052;-85
2022/05/15 03:51:42;;;;;;;102.88;27.92;;;;;;;;;;5003059;28;20042;-82
2022/05/15 03:54:09;;;;;;;67.07;17.20;;;;;;;;;;4984981;28;20402;-81
2022/05/15 03:56:51;;;;;;;32.70;10.27;;;;;;;;;;5002832;28;20050;-80
2022/05/15 03:59:21;;;;;;;20.05;8.07;;;;;;;;;;5001744;28;20042;-80
2022/05/15 04:01:48;;;;;;;21.88;7.22;;;;;;;;;;5001417;28;20049;-79
2022/05/15 04:04:14;;;;;;;21.58;7.47;;;;;;;;;;5000172;28;20054;-86
2022/05/15 04:06:40;;;;;;;19.55;6.47;;;;;;;;;;5000037;28;20053;-82
2022/05/15 04:09:07;;;;;;;20.42;5.95;;;;;;;;;;4980125;28;20030;-84
2022/05/15 04:11:33;;;;;;;21.17;6.15;;;;;;;;;;4998335;28;20467;-82
2022/05/15 04:13:59;;;;;;;18.27;5.97;;;;;;;;;;5002825;28;20030;-82
2022/05/15 04:16:25;;;;;;;20.25;5.47;;;;;;;;;;5002797;28;20049;-79
2022/05/15 04:18:55;;;;;;;16.17;5.28;;;;;;;;;;5004044;28;20073;-79
2022/05/15 04:21:21;;;;;;;23.00;6.63;;;;;;;;;;5012613;28;20069;-81
2022/05/15 04:23:47;;;;;;;17.30;5.70;;;;;;;;;;5007987;28;20030;-85
2022/05/15 04:26:14;;;;;;;18.00;6.05;;;;;;;;;;4985730;28;20501;-85
2022/05/15 04:28:41;;;;;;;20.55;6.88;;;;;;;;;;4985268;28;20046;-88
2022/05/15 04:31:08;;;;;;;25.98;7.47;;;;;;;;;;5002912;28;20414;-85
2022/05/15 04:33:34;;;;;;;22.65;6.65;;;;;;;;;;4985281;28;20100;-81
2022/05/15 04:36:00;;;;;;;19.10;6.53;;;;;;;;;;4981053;28;20054;-83
2022/05/15 04:38:27;;;;;;;18.38;5.85;;;;;;;;;;4998652;28;20520;-86
2022/05/15 04:40:53;;;;;;;25.15;6.82;;;;;;;;;;4984242;28;20038;-83
2022/05/15 04:43:19;;;;;;;22.08;5.88;;;;;;;;;;5003402;28;20088;-84
2022/05/15 04:45:45;;;;;;;26.02;6.65;;;;;;;;;;4985204;28;20069;-86
2022/05/15 04:48:11;;;;;;;31.42;6.65;;;;;;;;;;4998920;28;20033;-85
2022/05/15 04:50:38;;;;;;;23.48;6.10;;;;;;;;;;5007919;28;20034;-88
2022/05/15 04:53:04;;;;;;;25.65;7.55;;;;;;;;;;5004021;28;20050;-87
2022/05/15 04:55:30;;;;;;;29.17;7.28;;;;;;;;;;5000017;28;20093;-82
2022/05/15 04:57:58;;;;;;;27.05;7.85;;;;;;;;;;4997054;28;20042;-84
2022/05/15 05:00:24;;;;;;;34.67;9.85;;;;;;;;;;4987208;28;20041;-86
2022/05/15 05:02:50;;;;;;;29.95;7.45;;;;;;;;;;5001497;28;20037;-84
2022/05/15 05:05:16;;;;;;;25.25;6.55;;;;;;;;;;4983448;28;20068;-85
2022/05/15 05:07:45;;;;;;;31.85;7.78;;;;;;;;;;5001286;28;20050;-86
2022/05/15 05:10:13;;;;;;;30.02;6.75;;;;;;;;;;4999828;28;20046;-85
2022/05/15 05:12:39;;;;;;;31.55;6.93;;;;;;;;;;5007022;28;20048;-84
2022/05/15 05:15:06;;;;;;;34.17;7.57;;;;;;;;;;5004286;28;20401;-83
2022/05/15 05:17:32;;;;;;;30.75;7.18;;;;;;;;;;5005316;28;20108;-87
2022/05/15 05:19:58;;;;;;;33.50;6.85;;;;;;;;;;4993989;28;20042;-85
2022/05/15 05:22:26;;;;;;;33.15;8.07;;;;;;;;;;5004084;28;20050;-85
2022/05/15 05:24:52;;;;;;;28.33;7.82;;;;;;;;;;5005194;28;20104;-87
2022/05/15 05:27:18;;;;;;;23.60;7.03;;;;;;;;;;4986638;28;20038;-87
2022/05/15 05:29:44;;;;;;;23.40;6.60;;;;;;;;;;5003384;28;20049;-87
2022/05/15 05:32:12;;;;;;;27.90;6.97;;;;;;;;;;5003417;28;20045;-86
2022/05/15 05:34:38;;;;;;;31.95;7.50;;;;;;;;;;5005082;28;20037;-85
2022/05/15 05:37:04;;;;;;;29.92;7.15;;;;;;;;;;5003700;28;20080;-88
2022/05/15 05:39:30;;;;;;;35.08;6.85;;;;;;;;;;4971270;28;20050;-85
2022/05/15 05:41:57;;;;;;;20.42;5.45;;;;;;;;;;5005059;28;20085;-85
2022/05/15 05:44:23;;;;;;;28.35;7.35;;;;;;;;;;4986736;28;20054;-85
2022/05/15 05:46:50;;;;;;;32.90;7.35;;;;;;;;;;5003097;28;20042;-88
2022/05/15 05:49:16;;;;;;;28.63;7.30;;;;;;;;;;5000498;28;20494;-85
2022/05/15 05:51:42;;;;;;;34.83;6.63;;;;;;;;;;4988620;28;20402;-89
2022/05/15 05:54:08;;;;;;;31.17;6.22;;;;;;;;;;4985831;28;20470;-81
2022/05/15 05:56:34;;;;;;;27.48;6.60;;;;;;;;;;5002539;28;20035;-89
2022/05/15 05:59:00;;;;;;;31.23;6.75;;;;;;;;;;5007879;28;20393;-84
2022/05/15 06:01:26;;;;;;;34.97;7.60;;;;;;;;;;5017144;28;20038;-84
2022/05/15 06:06:37;;;;;;;27.98;5.90;;;;;;;;;;4997385;28;20038;-84
2022/05/15 06:09:03;;;;;;;31.17;7.18;;;;;;;;;;5020458;28;20029;-83
2022/05/15 06:11:29;;;;;;;38.33;6.80;;;;;;;;;;4978495;28;20066;-87
2022/05/15 06:14:11;;;;;;;27.13;6.40;;;;;;;;;;5009090;28;20053;-88
2022/05/15 06:16:37;;;;;;;22.90;6.35;;;;;;;;;;5004505;28;20108;-87
2022/05/15 06:19:03;;;;;;;31.05;6.20;;;;;;;;;;4984898;28;20077;-84
2022/05/15 06:21:29;;;;;;;27.50;7.45;;;;;;;;;;4986025;28;20065;-87
2022/05/15 06:23:55;;;;;;;35.75;7.28;;;;;;;;;;5004775;28;20069;-87
2022/05/15 06:26:21;;;;;;;31.45;7.05;;;;;;;;;;4987272;28;20103;-85
2022/05/15 06:28:47;;;;;;;22.35;5.97;;;;;;;;;;4988620;28;20042;-80
2022/05/15 06:31:13;;;;;;;28.45;6.45;;;;;;;;;;5003483;28;20588;-78
2022/05/15 06:33:39;;;;;;;31.50;6.85;;;;;;;;;;5001575;28;20038;-83
2022/05/15 06:36:06;;;;;;;23.83;6.38;;;;;;;;;;4987432;28;20038;-84
2022/05/15 06:38:33;;;;;;;30.35;6.40;;;;;;;;;;4986422;28;20037;-88
2022/05/15 06:40:59;;;;;;;27.50;8.63;;;;;;;;;;5001218;28;20045;-87
2022/05/15 06:43:25;;;;;;;27.00;6.95;;;;;;;;;;5003513;28;20050;-84
2022/05/15 06:45:51;;;;;;;27.83;6.75;;;;;;;;;;5004726;28;20042;-86
2022/05/15 06:48:17;;;;;;;26.45;6.75;;;;;;;;;;5003815;28;20413;-90
2022/05/15 06:50:44;;;;;;;23.52;6.63;;;;;;;;;;5003083;28;20411;-82
2022/05/15 06:53:13;;;;;;;28.52;7.03;;;;;;;;;;5004894;28;20053;-84
2022/05/15 06:58:24;;;;;;;25.75;5.97;;;;;;;;;;5006948;28;20046;-83
2022/05/15 07:00:51;;;;;;;32.05;6.20;;;;;;;;;;5007042;28;20050;-83
2022/05/15 07:03:17;;;;;;;27.73;6.65;;;;;;;;;;5006977;28;20057;-88
2022/05/15 07:05:43;;;;;;;24.42;6.43;;;;;;;;;;5000404;28;20038;-84
2022/05/15 07:08:11;;;;;;;16.70;6.05;;;;;;;;;;5007130;28;20479;-85
2022/05/15 07:10:37;;;;;;;28.95;6.75;;;;;;;;;;4988091;28;20045;-86
2022/05/15 07:13:03;;;;;;;21.58;5.85;;;;;;;;;;4998068;28;20042;-85
2022/05/15 07:15:30;;;;;;;35.67;7.05;;;;;;;;;;4996912;28;20152;-86
2022/05/15 07:17:57;;;;;;;29.00;7.53;;;;;;;;;;5006607;28;20045;-86
2022/05/15 07:20:23;;;;;;;28.10;6.80;;;;;;;;;;4990104;28;20041;-82
2022/05/15 07:22:49;;;;;;;30.40;6.90;;;;;;;;;;4988268;28;20065;-84
2022/05/15 07:25:15;;;;;;;21.55;6.07;;;;;;;;;;5005752;28;20410;-85
2022/05/15 07:27:41;;;;;;;21.92;5.30;;;;;;;;;;5005902;28;20136;-88
2022/05/15 07:30:08;;;;;;;23.50;6.65;;;;;;;;;;4999315;28;20045;-85
2022/05/15 07:32:34;;;;;;;24.60;6.40;;;;;;;;;;5000666;28;20042;-84
2022/05/15 07:35:00;;;;;;;22.92;6.10;;;;;;;;;;4998929;28;20551;-85
2022/05/15 07:37:26;;;;;;;27.08;6.60;;;;;;;;;;5002110;28;20030;-87
2022/05/15 07:39:54;;;;;;;24.98;6.47;;;;;;;;;;4998575;28;20500;-86
2022/05/15 07:42:20;;;;;;;21.48;6.45;;;;;;;;;;5000502;28;20067;-84
2022/05/15 07:44:47;;;;;;;22.50;6.28;;;;;;;;;;4998840;28;20405;-86
2022/05/15 07:47:13;;;;;;;21.77;7.53;;;;;;;;;;4998750;28;20054;-85
2022/05/15 07:49:40;;;;;;;26.42;7.68;;;;;;;;;;5001753;28;20041;-84
2022/05/15 07:52:07;;;;;;;29.10;7.68;;;;;;;;;;5000176;28;20088;-83
2022/05/15 07:54:33;;;;;;;22.95;7.30;;;;;;;;;;4985410;28;20111;-83
2022/05/15 07:57:00;;;;;;;30.30;8.73;;;;;;;;;;5005796;28;20042;-83
2022/05/15 07:59:27;;;;;;;28.38;7.72;;;;;;;;;;5014251;28;20026;-83
2022/05/15 08:01:55;;;;;;;25.92;7.35;;;;;;;;;;5011377;28;20162;-85
2022/05/15 08:04:21;;;;;;;26.50;7.32;;;;;;;;;;4980979;28;20053;-86
2022/05/15 08:09:35;;;;;;;20.83;6.78;;;;;;;;;;4999132;28;20502;-88
2022/05/15 08:12:01;;;;;;;19.10;7.00;;;;;;;;;;5002276;28;20053;-88
2022/05/15 08:14:29;;;;;;;30.20;8.07;;;;;;;;;;4969007;28;20041;-80
2022/05/15 08:16:56;;;;;;;25.05;7.57;;;;;;;;;;4986677;28;20388;-86
2022/05/15 08:24:59;;;;;;;23.65;5.63;;;;;;;;;;4971957;28;20047;-82
2022/05/15 08:27:25;;;;;;;21.08;5.90;;;;;;;;;;4975832;28;20058;-83
2022/05/15 08:29:51;;;;;;;21.63;6.13;;;;;;;;;;4988275;28;20061;-87
2022/05/15 08:32:19;;;;;;;26.35;6.10;;;;;;;;;;5003718;28;21146;-84
2022/05/15 08:34:45;;;;;;;21.52;5.88;;;;;;;;;;4985897;28;20141;-84
2022/05/15 08:37:11;;;;;;;21.58;5.65;;;;;;;;;;4959234;28;20487;-84
2022/05/15 08:39:37;;;;;;;21.35;6.47;;;;;;;;;;5006390;28;20038;-82
2022/05/15 08:42:20;;;;;;;22.75;6.50;;;;;;;;;;4965802;28;20057;-83
2022/05/15 08:44:47;;;;;;;15.65;5.28;;;;;;;;;;5002951;28;20061;-83
2022/05/15 08:47:31;;;;;;;19.75;5.22;;;;;;;;;;5021977;28;20461;-80
2022/05/15 08:50:23;;;;;;;20.45;5.20;;;;;;;;;;4993599;28;20438;-81
2022/05/15 08:52:54;;;;;;;17.85;5.00;;;;;;;;;;4982902;28;20058;-83
2022/05/15 08:55:26;;;;;;;16.88;4.68;;;;;;;;;;4970029;28;20052;-84
2022/05/15 08:58:01;;;;;;;18.30;4.40;;;;;;;;;;4983611;28;20041;-82
2022/05/15 09:00:32;;;;;;;18.13;5.20;;;;;;;;;;4987202;28;20097;-85
2022/05/15 09:06:25;;;;;;;65.40;37.90;;;;;;;;;;5019045;28;20414;-83
2022/05/15 09:08:58;;;;;;;17.27;6.85;;;;;;;;;;5019773;28;20497;-83
2022/05/15 09:11:37;;;;;;;20.90;5.05;;;;;;;;;;5020768;28;20050;-83
2022/05/15 09:14:09;;;;;;;15.82;4.63;;;;;;;;;;5023670;28;20099;-83
2022/05/15 09:16:36;;;;;;;15.02;4.38;;;;;;;;;;5017629;28;20073;-85
2022/05/15 09:19:03;;;;;;;19.38;5.25;;;;;;;;;;5016057;28;20469;-80
2022/05/15 09:21:29;;;;;;;14.43;4.85;;;;;;;;;;5023017;28;20045;-85
2022/05/15 09:23:57;;;;;;;14.35;3.92;;;;;;;;;;5023618;28;20405;-84
2022/05/15 09:26:28;;;;;;;15.20;4.38;;;;;;;;;;5008800;28;20140;-85
2022/05/15 09:28:56;;;;;;;17.00;5.03;;;;;;;;;;5022843;28;20037;-86
2022/05/15 09:31:42;;;;;;;15.80;4.18;;;;;;;;;;5023955;28;20511;-87
2022/05/15 09:34:11;;;;;;;20.02;4.95;;;;;;;;;;4993258;28;20489;-81
2022/05/15 09:36:42;;;;;;;13.82;4.57;;;;;;;;;;5014912;28;20440;-83
2022/05/15 09:39:22;;;;;;;10.57;3.72;;;;;;;;;;5019176;28;20995;-84
2022/05/15 09:44:44;;;;;;;18.58;4.70;;;;;;;;;;5009839;28;20049;-88
2022/05/15 09:47:19;;;;;;;18.60;5.40;;;;;;;;;;5021599;28;20049;-87
2022/05/15 09:49:46;;;;;;;18.73;5.05;;;;;;;;;;4983777;28;20128;-83
2022/05/15 09:52:15;;;;;;;19.10;5.22;;;;;;;;;;5017251;28;20128;-81
2022/05/15 09:54:45;;;;;;;17.15;4.10;;;;;;;;;;4982937;28;20057;-83
2022/05/15 09:57:11;;;;;;;16.17;4.88;;;;;;;;;;5002360;28;20087;-86
2022/05/15 09:59:37;;;;;;;16.00;4.10;;;;;;;;;;5003741;28;20495;-84
2022/05/15 10:02:03;;;;;;;10.07;3.47;;;;;;;;;;5021747;28;20651;-80
2022/05/15 10:04:30;;;;;;;13.98;3.97;;;;;;;;;;5019893;28;20041;-87
2022/05/15 10:07:02;;;;;;;15.00;4.20;;;;;;;;;;5019826;28;20115;-86
2022/05/15 10:09:31;;;;;;;11.80;3.95;;;;;;;;;;5019597;28;20064;-84
2022/05/15 10:12:07;;;;;;;18.92;4.25;;;;;;;;;;5000925;28;20482;-88
2022/05/15 10:14:50;;;;;;;15.77;3.78;;;;;;;;;;4998614;28;20042;-84
2022/05/15 10:17:17;;;;;;;17.73;3.97;;;;;;;;;;5017355;28;20048;-85
2022/05/15 10:19:47;;;;;;;17.48;4.25;;;;;;;;;;5018829;28;20045;-83
2022/05/15 10:22:22;;;;;;;15.82;3.70;;;;;;;;;;5018678;28;20053;-86
2022/05/15 10:24:49;;;;;;;16.55;4.57;;;;;;;;;;5014904;28;20190;-85
2022/05/15 10:27:22;;;;;;;13.57;4.03;;;;;;;;;;5019797;28;20033;-87
2022/05/15 10:29:53;;;;;;;15.88;4.40;;;;;;;;;;5017067;28;20060;-87
2022/05/15 10:32:27;;;;;;;16.42;4.15;;;;;;;;;;5017729;28;20038;-87
2022/05/15 10:34:54;;;;;;;11.88;3.50;;;;;;;;;;4992279;28;20057;-88
2022/05/15 10:37:20;;;;;;;14.43;3.92;;;;;;;;;;5025595;28;20612;-87
2022/05/15 10:40:01;;;;;;;9.95;3.55;;;;;;;;;;5027164;28;20038;-88
2022/05/15 10:42:46;;;;;;;12.73;4.13;;;;;;;;;;5025037;28;20045;-88
2022/05/15 10:45:21;;;;;;;13.95;4.07;;;;;;;;;;5027091;28;20122;-85
2022/05/15 10:47:53;;;;;;;15.77;4.00;;;;;;;;;;4994557;28;20080;-88
2022/05/15 10:50:56;;;;;;;11.80;3.90;;;;;;;;;;5006913;28;20044;-88
2022/05/15 10:59:35;;;;;;;12.07;3.65;;;;;;;;;;4989241;28;20041;-86
2022/05/15 11:02:08;;;;;;;11.80;3.85;;;;;;;;;;5021252;28;20053;-88
2022/05/15 11:04:43;;;;;;;15.00;3.83;;;;;;;;;;5022752;28;20121;-81
2022/05/15 11:07:13;;;;;;;22.45;4.70;;;;;;;;;;5020850;28;20050;-83
2022/05/15 11:10:00;;;;;;;16.35;4.60;;;;;;;;;;5018417;28;20124;-84
2022/05/15 11:12:43;;;;;;;16.88;4.70;;;;;;;;;;5006204;28;20388;-86
2022/05/15 11:15:09;;;;;;;14.65;4.45;;;;;;;;;;5033710;28;20140;-89
2022/05/15 11:17:50;;;;;;;18.42;5.13;;;;;;;;;;5007573;28;20108;-87
2022/05/15 11:20:29;;;;;;;15.63;4.13;;;;;;;;;;5004601;28;20091;-90
2022/05/15 11:23:02;;;;;;;17.90;4.72;;;;;;;;;;5031616;28;20049;-88
2022/05/15 11:25:30;;;;;;;15.95;4.45;;;;;;;;;;5031980;28;20489;-91
2022/05/15 11:28:06;;;;;;;15.75;4.80;;;;;;;;;;5036083;28;20038;-85
2022/05/15 11:30:36;;;;;;;15.48;4.40;;;;;;;;;;4993926;28;20128;-86
2022/05/15 11:33:20;;;;;;;15.23;4.75;;;;;;;;;;5008608;28;20112;-87
2022/05/15 11:36:08;;;;;;;14.52;5.40;;;;;;;;;;5025025;28;20501;-92
2022/05/15 11:38:45;;;;;;;14.43;4.10;;;;;;;;;;5026787;28;20371;-85
2022/05/15 11:41:29;;;;;;;16.52;5.13;;;;;;;;;;5026264;28;20061;-87
2022/05/15 11:43:57;;;;;;;20.25;5.47;;;;;;;;;;5025176;28;20068;-87
2022/05/15 11:47:01;;;;;;;16.10;4.93;;;;;;;;;;5008100;28;20081;-83
2022/05/15 11:49:33;;;;;;;14.35;4.88;;;;;;;;;;5008028;28;20049;-83
2022/05/15 11:52:06;;;;;;;19.45;5.25;;;;;;;;;;5021796;28;20207;-86
2022/05/15 11:54:36;;;;;;;19.77;5.75;;;;;;;;;;5021086;28;20489;-84
2022/05/15 11:57:03;;;;;;;14.10;4.65;;;;;;;;;;5021710;28;20108;-82
2022/05/15 11:59:30;;;;;;;20.52;5.72;;;;;;;;;;5021008;28;20041;-81
2022/05/15 12:02:04;;;;;;;21.10;5.88;;;;;;;;;;5022198;28;20156;-90
2022/05/15 12:04:36;;;;;;;21.27;6.13;;;;;;;;;;5006346;28;20061;-89
2022/05/15 12:07:02;;;;;;;18.38;5.45;;;;;;;;;;5014797;28;20050;-86
2022/05/15 12:19:08;;;;;;;18.20;5.25;;;;;;;;;;5146271;22;20131;-82
2022/05/15 12:21:37;;;;;;;19.77;5.45;;;;;;;;;;5017515;28;20148;-86
2022/05/15 12:26:58;;;;;;;20.05;5.40;;;;;;;;;;5019319;28;20052;-83
2022/05/15 12:29:44;;;;;;;21.17;5.55;;;;;;;;;;5021036;28;20065;-86
2022/05/15 12:32:48;;;;;;;17.85;5.25;;;;;;;;;;5029406;28;20071;-89
2022/05/15 12:35:24;;;;;;;27.02;6.38;;;;;;;;;;5028258;28;20132;-90
2022/05/15 12:38:17;;;;;;;21.77;5.72;;;;;;;;;;5006400;28;20132;-83
2022/05/15 12:41:02;;;;;;;17.77;6.10;;;;;;;;;;5016421;28;20457;-83
2022/05/15 12:43:31;;;;;;;19.77;6.07;;;;;;;;;;5020443;28;20103;-82
2022/05/15 12:45:57;;;;;;;18.63;5.57;;;;;;;;;;5022841;28;20080;-84
2022/05/15 12:48:24;;;;;;;21.92;6.13;;;;;;;;;;5019374;28;20132;-82
2022/05/15 12:51:01;;;;;;;20.83;5.95;;;;;;;;;;5024590;28;20784;-82
2022/05/15 12:53:29;;;;;;;26.77;6.32;;;;;;;;;;5014400;28;20124;-89
2022/05/15 12:56:09;;;;;;;21.00;5.93;;;;;;;;;;5021406;28;20040;-84
2022/05/15 12:58:37;;;;;;;22.85;6.55;;;;;;;;;;5019896;28;20141;-83
2022/05/15 13:01:13;;;;;;;21.80;5.90;;;;;;;;;;4983420;28;20081;-87
2022/05/15 13:03:43;;;;;;;23.20;5.75;;;;;;;;;;5000138;28;20046;-81
2022/05/15 13:06:10;;;;;;;20.75;5.95;;;;;;;;;;5013847;28;20041;-82
2022/05/15 13:08:43;;;;;;;22.67;5.70;;;;;;;;;;4973764;28;20034;-88
2022/05/15 13:11:11;;;;;;;19.92;5.30;;;;;;;;;;5017592;28;20050;-85
2022/05/15 13:13:39;;;;;;;19.10;5.90;;;;;;;;;;4984081;28;20127;-81
2022/05/15 13:16:06;;;;;;;21.15;6.15;;;;;;;;;;5001154;28;20041;-80
2022/05/15 13:18:34;;;;;;;21.02;5.28;;;;;;;;;;4983677;28;20064;-82
2022/05/15 13:21:03;;;;;;;28.05;6.80;;;;;;;;;;5019537;28;20041;-91
2022/05/15 13:23:47;;;;;;;20.02;6.57;;;;;;;;;;5015096;28;20477;-82
2022/05/15 13:26:28;;;;;;;22.77;5.85;;;;;;;;;;4995285;28;20054;-82
2022/05/15 13:28:58;;;;;;;22.67;6.20;;;;;;;;;;5010318;28;20488;-84
2022/05/15 13:31:24;;;;;;;18.60;5.78;;;;;;;;;;4995373;28;20046;-83
2022/05/15 13:33:54;;;;;;;21.58;5.95;;;;;;;;;;5015096;28;20049;-88
2022/05/15 13:36:20;;;;;;;14.48;5.28;;;;;;;;;;4986272;28;20054;-84
2022/05/15 13:44:26;;;;;;;20.33;5.43;;;;;;;;;;5016018;28;20169;-85
2022/05/15 13:50:23;;;;;;;16.58;5.38;;;;;;;;;;4981202;28;20045;-84
2022/05/15 13:53:13;;;;;;;17.77;5.78;;;;;;;;;;4987552;28;20068;-85
2022/05/15 13:55:40;;;;;;;20.33;6.22;;;;;;;;;;5000897;28;20263;-88
2022/05/15 13:58:06;;;;;;;17.92;5.43;;;;;;;;;;5024839;28;20611;-87
2022/05/15 14:00:33;;;;;;;13.30;4.57;;;;;;;;;;5022452;28;20042;-85
2022/05/15 14:03:05;;;;;;;18.13;5.60;;;;;;;;;;5026962;28;20046;-91
2022/05/15 14:05:36;;;;;;;18.45;4.53;;;;;;;;;;5145477;22;20048;-87
2022/05/15 14:08:28;;;;;;;17.38;5.07;;;;;;;;;;5076761;28;20072;-90
2022/05/15 14:20:29;;;;;;;16.48;4.90;;;;;;;;;;5066146;28;20071;-81
2022/05/15 14:22:58;;;;;;;17.38;4.75;;;;;;;;;;5046424;28;20139;-83
2022/05/15 14:25:25;;;;;;;17.77;4.45;;;;;;;;;;5049138;28;20103;-87
2022/05/15 14:27:51;;;;;;;17.17;4.82;;;;;;;;;;5059089;28;20467;-90
2022/05/15 14:30:20;;;;;;;20.08;6.32;;;;;;;;;;5041206;28;20135;-87
2022/05/15 14:32:50;;;;;;;16.83;4.80;;;;;;;;;;5040888;28;20040;-83
2022/05/15 14:35:18;;;;;;;15.07;4.00;;;;;;;;;;5083581;28;20036;-82
2022/05/15 14:37:45;;;;;;;15.77;4.45;;;;;;;;;;5076869;28;20037;-88
2022/05/15 14:40:11;;;;;;;13.73;4.63;;;;;;;;;;5065775;28;20060;-89
2022/05/15 14:42:38;;;;;;;12.85;3.85;;;;;;;;;;5010584;28;20139;-89
2022/05/15 14:45:19;;;;;;;9.95;3.58;;;;;;;;;;5123772;22;20060;-88
2022/05/15 14:48:05;;;;;;;13.25;3.50;;;;;;;;;;5065040;28;20039;-91
2022/05/15 14:50:46;;;;;;;11.13;3.75;;;;;;;;;;5063694;28;20048;-90
2022/05/15 14:53:13;;;;;;;12.05;3.97;;;;;;;;;;5025979;28;20076;-88
2022/05/15 14:58:25;;;;;;;12.73;3.67;;;;;;;;;;5044240;28;20580;-90
2022/05/15 15:00:52;;;;;;;10.82;4.22;;;;;;;;;;5064722;28;20044;-87
2022/05/15 15:03:18;;;;;;;12.13;3.85;;;;;;;;;;5064675;28;20045;-90
2022/05/15 15:05:44;;;;;;;13.25;4.22;;;;;;;;;;5045325;28;20044;-86
2022/05/15 15:08:14;;;;;;;15.82;4.13;;;;;;;;;;5046814;28;20048;-88
2022/05/15 15:11:18;;;;;;;8.48;3.25;;;23.80;99.90;;;;;;5056910;28;20110;-87
2022/05/15 15:13:45;;;;;;;16.38;4.40;;;;;;;;;;5062690;28;20044;-86
2022/05/15 15:16:11;;;;;;;13.48;4.18;;;;;;;;;;5041952;28;20163;-85
2022/05/15 15:18:37;;;;;;;9.75;3.40;;;;;;;;;;5062300;28;20029;-89
2022/05/15 15:21:04;;;;;;;14.07;3.40;;;;;;;;;;5058087;28;20127;-90
2022/05/15 15:23:30;;;;;;;16.55;4.60;;;;;;;;;;5059851;28;20087;-89
2022/05/15 15:25:56;;;;;;;14.75;4.30;;;;;;;;;;5047590;28;20041;-86
2022/05/15 15:31:17;;;;;;;12.68;4.97;;;;;;;;;;5066766;28;20036;-88
2022/05/15 15:33:43;;;;;;;12.90;3.47;;;;;;;;;;5028759;28;20063;-88
2022/05/15 15:36:21;;;;;;;;;;;;;;;;;;;;;
2022/05/15 15:38:54;;;;;;;10.85;3.45;;;;;;;;;;5059414;28;20071;-90
2022/05/15 15:41:23;;;;;;;10.75;3.53;;;;;;;;;;5059487;28;20045;-89
2022/05/15 15:43:53;;;;;;;12.98;3.88;;;;;;;;;;5020407;28;20041;-84
2022/05/15 15:46:48;;;;;;;16.25;5.03;;;;;;;;;;5056830;28;20060;-88